Time;durP1;ratioP1;P1;durP2;ratioP2;P2;SDS_P1;SDS_P2;PMS_P1;PMS_P2;Temp;Humidity;BMP_temperature;BMP_pressure;BME280_temperature;BME280_humidity;BME280_pressure;Samples;Min_cycle;Max_cycle;Signal;HPM_P1;HPM_P2
2023/07/12 00:01:10;;;;;;;3.95;1.00;;;18.30;99.90;;;;;;5056200;28;20037;-70
2023/07/12 00:03:35;;;;;;;4.57;0.73;;;18.30;99.90;;;;;;5059192;28;20040;-70
2023/07/12 00:06:01;;;;;;;3.55;1.10;;;18.20;99.90;;;;;;5066326;28;20470;-71
2023/07/12 00:08:28;;;;;;;3.35;1.15;;;18.10;99.90;;;;;;5062869;28;20530;-71
2023/07/12 00:10:57;;;;;;;4.25;0.80;;;18.10;99.90;;;;;;5061436;28;20021;-70
2023/07/12 00:13:23;;;;;;;4.20;1.00;;;18.10;99.90;;;;;;5058852;28;20040;-70
2023/07/12 00:15:50;;;;;;;3.60;0.90;;;18.00;99.90;;;;;;5062715;28;20025;-70
2023/07/12 00:18:19;;;;;;;3.85;0.70;;;17.90;99.90;;;;;;5058003;28;20029;-70
2023/07/12 00:20:47;;;;;;;2.90;0.90;;;17.90;99.90;;;;;;5056477;28;20040;-70
2023/07/12 00:23:14;;;;;;;4.57;0.80;;;17.90;99.90;;;;;;5062920;28;20035;-70
2023/07/12 00:25:41;;;;;;;3.13;0.80;;;17.80;99.90;;;;;;5063204;28;20029;-70
2023/07/12 00:28:24;;;;;;;7.95;1.27;;;17.70;99.90;;;;;;5053941;28;20025;-70
2023/07/12 00:30:51;;;;;;;4.15;0.80;;;17.70;99.90;;;;;;5068545;28;20034;-70
2023/07/12 00:33:18;;;;;;;4.85;1.10;;;17.60;99.90;;;;;;5043865;28;20195;-70
2023/07/12 00:35:43;;;;;;;5.30;1.40;;;17.50;99.90;;;;;;5049519;28;20412;-70
2023/07/12 00:38:17;;;;;;;4.10;1.30;;;17.50;99.90;;;;;;5059280;28;20068;-70
2023/07/12 00:41:07;;;;;;;4.72;1.35;;;17.40;99.90;;;;;;5054865;28;20085;-70
2023/07/12 00:43:43;;;;;;;6.40;1.25;;;17.40;99.90;;;;;;5039395;28;20040;-70
2023/07/12 00:46:14;;;;;;;6.35;1.27;;;17.30;99.90;;;;;;5061439;28;20044;-70
2023/07/12 00:48:39;;;;;;;6.35;1.10;;;17.30;99.90;;;;;;5063662;28;20017;-70
2023/07/12 00:51:27;;;;;;;4.10;1.10;;;17.30;99.90;;;;;;5060139;28;20035;-70
2023/07/12 00:53:54;;;;;;;4.03;1.05;;;17.30;99.90;;;;;;5040361;28;20029;-70
2023/07/12 00:56:20;;;;;;;6.47;1.58;;;17.30;99.90;;;;;;5037054;28;20064;-70
2023/07/12 00:58:52;;;;;;;3.60;0.80;;;17.30;99.90;;;;;;5067688;28;20020;-70
2023/07/12 01:01:18;;;;;;;3.20;1.20;;;17.30;99.90;;;;;;5057822;28;20032;-70
2023/07/12 01:03:45;;;;;;;9.20;1.00;;;17.30;99.90;;;;;;5057328;28;20036;-70
2023/07/12 01:06:17;;;;;;;4.00;0.93;;;17.30;99.90;;;;;;5061791;28;20029;-70
2023/07/12 01:08:43;;;;;;;5.20;1.00;;;17.30;99.90;;;;;;5052950;28;20017;-70
2023/07/12 01:11:12;;;;;;;4.35;1.10;;;17.30;99.90;;;;;;5069496;28;20108;-70
2023/07/12 01:13:43;;;;;;;4.70;0.90;;;17.30;99.90;;;;;;5070079;28;20021;-70
2023/07/12 01:16:12;;;;;;;7.43;1.10;;;17.30;99.90;;;;;;5052058;28;20056;-70
2023/07/12 01:18:38;;;;;;;9.35;1.33;;;17.20;99.90;;;;;;5042451;28;20108;-70
2023/07/12 01:21:14;;;;;;;8.48;1.08;;;17.20;99.90;;;;;;5052695;28;20108;-70
2023/07/12 01:23:42;;;;;;;7.30;1.23;;;17.20;99.90;;;;;;5058987;28;20021;-70
2023/07/12 01:26:24;;;;;;;6.80;1.00;;;17.20;99.90;;;;;;5059834;28;20040;-70
2023/07/12 01:28:51;;;;;;;;;;;17.20;99.90;;;;;;5055015;28;20032;-70
2023/07/12 01:31:18;;;;;;;6.55;1.52;;;17.20;99.90;;;;;;5054497;28;20671;-70
2023/07/12 01:33:43;;;;;;;4.55;0.82;;;17.20;99.90;;;;;;5063351;28;20021;-70
2023/07/12 01:36:09;;;;;;;8.43;1.20;;;17.20;99.90;;;;;;5049092;28;20032;-70
2023/07/12 01:38:35;;;;;;;5.88;1.48;;;17.30;99.90;;;;;;5069130;28;20070;-70
2023/07/12 01:41:01;;;;;;;5.53;1.58;;;17.20;99.90;;;;;;5069667;28;20482;-70
2023/07/12 01:43:26;;;;;;;8.63;1.30;;;17.30;99.90;;;;;;5065602;28;20064;-70
2023/07/12 01:45:52;;;;;;;5.40;1.45;;;17.30;99.90;;;;;;5064303;28;20513;-71
2023/07/12 01:48:17;;;;;;;6.28;1.48;;;17.20;99.90;;;;;;5062921;28;20486;-70
2023/07/12 01:50:43;;;;;;;8.60;1.70;;;17.20;99.90;;;;;;5065533;28;20494;-70
2023/07/12 01:53:09;;;;;;;8.20;1.30;;;17.20;99.90;;;;;;5049831;28;20087;-69
2023/07/12 01:55:35;;;;;;;9.20;1.45;;;17.10;99.90;;;;;;5058292;28;20039;-70
2023/07/12 01:58:01;;;;;;;6.97;1.33;;;17.20;99.90;;;;;;5063537;28;20045;-70
2023/07/12 02:00:26;;;;;;;10.95;2.97;;;17.10;99.90;;;;;;5053394;28;20139;-70
2023/07/12 02:02:52;;;;;;;6.13;1.38;;;17.10;99.90;;;;;;5070243;28;20024;-70
2023/07/12 02:05:18;;;;;;;5.80;1.40;;;17.20;99.90;;;;;;5072302;28;20048;-70
2023/07/12 02:07:44;;;;;;;7.50;1.48;;;17.20;99.90;;;;;;5061930;28;20060;-70
2023/07/12 02:10:13;;;;;;;9.00;1.60;;;17.20;99.90;;;;;;5063553;28;20497;-70
2023/07/12 02:12:39;;;;;;;4.20;1.30;;;17.20;99.90;;;;;;5067373;28;20066;-70
2023/07/12 02:15:05;;;;;;;6.68;2.10;;;17.20;99.90;;;;;;5051251;28;20521;-70
2023/07/12 02:17:31;;;;;;;11.38;1.83;;;17.20;99.90;;;;;;5058123;28;20041;-70
2023/07/12 02:19:57;;;;;;;8.00;1.75;;;17.20;99.90;;;;;;5071358;28;20075;-70
2023/07/12 02:22:22;;;;;;;9.27;1.83;;;17.20;99.90;;;;;;5063707;28;20051;-70
2023/07/12 02:24:48;;;;;;;10.48;2.13;;;17.20;99.90;;;;;;5056395;28;20441;-70
2023/07/12 02:27:13;;;;;;;9.70;1.73;;;17.20;99.90;;;;;;5065703;28;20034;-70
2023/07/12 02:29:39;;;;;;;5.18;1.17;;;17.20;99.90;;;;;;5067243;28;20028;-70
2023/07/12 02:32:05;;;;;;;8.45;1.73;;;17.20;99.90;;;;;;5064377;28;20032;-70
2023/07/12 02:34:30;;;;;;;7.13;1.80;;;17.10;99.90;;;;;;5065540;28;20036;-70
2023/07/12 02:36:56;;;;;;;7.97;1.95;;;17.10;99.90;;;;;;5049479;28;20508;-70
2023/07/12 02:39:21;;;;;;;5.40;1.70;;;17.10;99.90;;;;;;5063696;28;20073;-71
2023/07/12 02:41:47;;;;;;;5.80;1.08;;;17.10;99.90;;;;;;5049606;28;20563;-70
2023/07/12 02:44:12;;;;;;;4.03;1.00;;;17.00;99.90;;;;;;5050692;28;20456;-70
2023/07/12 02:46:38;;;;;;;6.45;1.48;;;17.00;99.90;;;;;;5063676;28;20045;-70
2023/07/12 02:49:04;;;;;;;6.88;1.40;;;16.90;99.90;;;;;;5055476;28;20029;-70
2023/07/12 02:51:29;;;;;;;9.07;1.65;;;16.90;99.90;;;;;;5060070;28;20142;-70
2023/07/12 02:53:55;;;;;;;6.93;1.52;;;16.80;99.90;;;;;;5062401;28;20470;-71
2023/07/12 02:56:20;;;;;;;7.97;1.50;;;16.80;99.90;;;;;;5066291;28;20052;-71
2023/07/12 02:58:46;;;;;;;9.10;1.20;;;16.80;99.90;;;;;;5058687;28;20024;-70
2023/07/12 03:01:12;;;;;;;6.60;1.27;;;16.80;99.90;;;;;;5057139;28;20025;-70
2023/07/12 03:03:37;;;;;;;7.05;1.15;;;16.70;99.90;;;;;;5072408;28;20052;-70
2023/07/12 03:06:08;;;;;;;7.57;1.17;;;16.70;99.90;;;;;;5049508;28;20389;-70
2023/07/12 03:08:34;;;;;;;5.40;0.88;;;16.70;99.90;;;;;;5036712;28;20020;-70
2023/07/12 03:11:01;;;;;;;4.22;1.00;;;16.60;99.90;;;;;;5053203;28;20078;-70
2023/07/12 03:13:27;;;;;;;6.65;2.03;;;16.60;99.90;;;;;;5067059;28;20028;-70
2023/07/12 03:15:53;;;;;;;5.80;1.35;;;16.50;99.90;;;;;;5066929;28;20024;-70
2023/07/12 03:18:18;;;;;;;7.10;1.60;;;16.50;99.90;;;;;;5058412;28;20578;-70
2023/07/12 03:20:44;;;;;;;9.52;2.42;;;16.50;99.90;;;;;;5062703;28;20502;-70
2023/07/12 03:23:10;;;;;;;6.57;1.40;;;16.50;99.90;;;;;;5059254;28;20033;-70
2023/07/12 03:25:35;;;;;;;7.47;2.17;;;16.50;99.90;;;;;;5049275;28;20021;-71
2023/07/12 03:28:01;;;;;;;6.97;2.28;;;16.50;99.90;;;;;;5051567;28;20033;-70
2023/07/12 03:30:26;;;;;;;6.00;2.00;;;16.50;99.90;;;;;;5036825;28;20068;-70
2023/07/12 03:32:52;;;;;;;7.97;2.60;;;16.50;99.90;;;;;;5024858;28;20052;-70
2023/07/12 03:35:17;;;;;;;6.75;2.97;;;16.40;99.90;;;;;;5061133;28;20475;-71
2023/07/12 03:37:43;;;;;;;6.43;2.75;;;16.40;99.90;;;;;;5064888;28;20062;-71
2023/07/12 03:40:09;;;;;;;10.77;3.00;;;16.40;99.90;;;;;;5032881;28;20186;-71
2023/07/12 03:42:35;;;;;;;9.02;3.50;;;16.30;99.90;;;;;;5045817;28;20108;-71
2023/07/12 03:45:01;;;;;;;11.45;4.32;;;16.30;99.90;;;;;;5042535;28;20173;-71
2023/07/12 03:47:26;;;;;;;8.18;4.00;;;16.20;99.90;;;;;;5055825;28;20029;-71
2023/07/12 03:49:53;;;;;;;9.73;4.10;;;16.20;99.90;;;;;;5036235;28;20429;-70
2023/07/12 03:52:18;;;;;;;10.75;4.60;;;16.20;99.90;;;;;;5057239;28;20434;-70
2023/07/12 03:54:44;;;;;;;7.05;4.13;;;16.30;99.90;;;;;;5056627;28;20035;-70
2023/07/12 03:57:09;;;;;;;8.00;4.63;;;16.20;99.90;;;;;;5051908;28;20045;-69
2023/07/12 03:59:35;;;;;;;8.52;4.75;;;16.20;99.90;;;;;;5051497;28;20025;-71
2023/07/12 04:02:01;;;;;;;9.80;4.65;;;16.20;99.90;;;;;;5047906;28;20029;-72
2023/07/12 04:04:26;;;;;;;11.32;5.18;;;16.30;99.90;;;;;;5056721;28;20367;-71
2023/07/12 04:06:52;;;;;;;13.07;6.20;;;16.30;99.90;;;;;;5042174;28;20044;-71
2023/07/12 04:09:17;;;;;;;9.82;6.35;;;16.30;99.90;;;;;;5056128;28;20028;-71
2023/07/12 04:11:43;;;;;;;13.18;7.38;;;16.30;99.90;;;;;;5063378;28;20032;-71
2023/07/12 04:14:09;;;;;;;13.13;7.70;;;16.30;99.90;;;;;;5065180;28;20032;-72
2023/07/12 04:16:34;;;;;;;14.77;9.10;;;16.30;99.90;;;;;;5062668;28;20040;-71
2023/07/12 04:19:00;;;;;;;12.98;8.52;;;16.30;99.90;;;;;;5058071;28;20017;-71
2023/07/12 04:21:26;;;;;;;15.63;8.90;;;16.30;99.90;;;;;;5060914;28;20063;-71
2023/07/12 04:23:53;;;;;;;19.02;11.73;;;16.30;99.90;;;;;;5057626;28;20077;-71
2023/07/12 04:26:20;;;;;;;16.20;10.02;;;16.30;99.90;;;;;;5051129;28;20036;-71
2023/07/12 04:28:49;;;;;;;17.58;11.10;;;16.30;99.90;;;;;;5045057;28;20403;-71
2023/07/12 04:31:16;;;;;;;16.13;12.02;;;16.30;99.90;;;;;;5049849;28;20079;-71
2023/07/12 04:33:42;;;;;;;19.45;12.85;;;16.30;99.90;;;;;;5061261;28;20530;-71
2023/07/12 04:36:11;;;;;;;20.40;12.98;;;16.30;99.90;;;;;;5064105;28;20052;-71
2023/07/12 04:38:37;;;;;;;18.67;12.38;;;16.30;99.90;;;;;;5048526;28;20029;-71
2023/07/12 04:41:03;;;;;;;19.00;13.15;;;16.40;99.90;;;;;;5050034;28;20462;-69
2023/07/12 04:43:29;;;;;;;17.98;12.68;;;16.40;99.90;;;;;;5050469;28;20076;-69
2023/07/12 04:45:56;;;;;;;18.20;13.30;;;16.40;99.90;;;;;;5055300;28;20044;-69
2023/07/12 04:48:22;;;;;;;23.33;14.80;;;16.40;99.90;;;;;;5048077;28;20052;-70
2023/07/12 04:50:52;;;;;;;16.25;12.43;;;16.40;99.90;;;;;;5049950;28;20029;-69
2023/07/12 04:53:18;;;;;;;16.92;12.52;;;16.40;99.90;;;;;;5048086;28;20025;-71
2023/07/12 04:55:44;;;;;;;19.25;12.55;;;16.40;99.90;;;;;;5034079;28;20032;-72
2023/07/12 04:58:09;;;;;;;21.58;12.45;;;16.40;99.90;;;;;;5052999;28;20032;-71
2023/07/12 05:00:35;;;;;;;17.52;11.25;;;16.40;99.90;;;;;;5045330;28;20381;-72
2023/07/12 05:03:01;;;;;;;18.38;11.68;;;16.40;99.90;;;;;;5044219;28;20086;-71
2023/07/12 05:05:26;;;;;;;18.58;9.55;;;16.40;99.90;;;;;;5044882;28;20029;-71
2023/07/12 05:07:52;;;;;;;16.45;10.05;;;16.40;99.90;;;;;;5046439;28;20039;-71
2023/07/12 05:10:18;;;;;;;18.48;9.23;;;16.40;99.90;;;;;;5052603;28;20049;-71
2023/07/12 05:12:43;;;;;;;14.77;8.65;;;16.50;99.90;;;;;;5053503;28;20171;-71
2023/07/12 05:15:11;;;;;;;11.73;7.72;;;16.70;99.90;;;;;;5060002;28;20033;-71
2023/07/12 05:17:38;;;;;;;13.65;7.78;;;16.90;99.90;;;;;;5052597;28;20074;-71
2023/07/12 05:20:06;;;;;;;13.07;6.30;;;17.10;99.90;;;;;;5042434;28;20024;-71
2023/07/12 05:22:33;;;;;;;10.60;5.95;;;17.10;99.90;;;;;;5043364;28;20033;-71
2023/07/12 05:24:59;;;;;;;11.07;5.50;;;17.20;99.90;;;;;;5050043;28;20040;-71
2023/07/12 05:27:25;;;;;;;13.23;5.70;;;17.10;99.90;;;;;;5052678;28;20075;-71
2023/07/12 05:29:50;;;;;;;11.25;5.63;;;17.10;99.90;;;;;;5058986;28;20021;-72
2023/07/12 05:32:16;;;;;;;9.95;5.80;;;17.00;99.90;;;;;;5053979;28;20390;-71
2023/07/12 05:34:41;;;;;;;10.23;4.95;;;17.00;99.90;;;;;;5051110;28;20087;-72
2023/07/12 05:37:08;;;;;;;9.27;5.45;;;17.00;99.90;;;;;;5049983;28;20437;-73
2023/07/12 05:39:34;;;;;;;11.60;4.95;;;17.00;99.90;;;;;;5035188;28;20056;-72
2023/07/12 05:42:00;;;;;;;9.80;4.32;;;17.10;99.90;;;;;;5053927;28;20093;-72
2023/07/12 05:44:25;;;;;;;10.50;4.65;;;17.40;99.90;;;;;;5051389;28;20111;-72
2023/07/12 05:46:51;;;;;;;9.38;3.92;;;17.50;99.90;;;;;;5051534;28;20051;-72
2023/07/12 05:49:16;;;;;;;9.52;4.30;;;17.70;99.90;;;;;;5049152;28;20420;-71
2023/07/12 05:51:42;;;;;;;9.55;4.75;;;17.80;99.90;;;;;;5048332;28;20107;-71
2023/07/12 05:54:08;;;;;;;10.43;4.45;;;17.80;99.90;;;;;;5044265;28;20024;-71
2023/07/12 05:56:33;;;;;;;11.77;5.18;;;17.70;99.90;;;;;;5054475;28;20067;-71
2023/07/12 05:58:59;;;;;;;9.18;5.07;;;17.60;99.90;;;;;;5061007;28;20058;-71
2023/07/12 06:01:26;;;;;;;11.65;4.88;;;17.60;99.90;;;;;;5044046;28;20144;-72
2023/07/12 06:03:53;;;;;;;10.68;4.88;;;17.50;99.90;;;;;;5045840;28;20029;-71
2023/07/12 06:06:18;;;;;;;8.98;4.25;;;17.50;99.90;;;;;;5052663;28;20052;-71
2023/07/12 06:08:44;;;;;;;14.20;4.63;;;17.50;99.90;;;;;;5050295;28;20017;-71
2023/07/12 06:11:09;;;;;;;12.02;4.90;;;17.50;99.90;;;;;;5043051;28;20064;-70
2023/07/12 06:13:35;;;;;;;13.02;5.22;;;17.40;99.90;;;;;;5050923;28;20111;-70
2023/07/12 06:16:02;;;;;;;9.63;4.28;;;17.30;99.90;;;;;;5049887;28;20025;-71
2023/07/12 06:18:30;;;;;;;12.15;4.85;;;17.40;99.90;;;;;;5062167;28;20041;-71
2023/07/12 06:20:57;;;;;;;9.52;4.53;;;17.30;99.90;;;;;;5064318;28;20016;-71
2023/07/12 06:23:23;;;;;;;9.02;5.10;;;17.30;99.90;;;;;;5056448;28;20040;-70
2023/07/12 06:25:49;;;;;;;10.52;5.57;;;17.30;99.90;;;;;;5051978;28;20116;-71
2023/07/12 06:28:15;;;;;;;8.63;5.20;;;17.40;99.90;;;;;;5048323;28;20131;-70
2023/07/12 06:30:40;;;;;;;10.65;5.28;;;17.30;99.90;;;;;;5044507;28;20017;-71
2023/07/12 06:33:06;;;;;;;15.48;6.85;;;17.40;99.90;;;;;;5055591;28;20021;-71
2023/07/12 06:35:31;;;;;;;13.68;5.70;;;17.40;99.90;;;;;;5059382;28;20463;-71
2023/07/12 06:37:57;;;;;;;15.25;5.97;;;17.40;99.90;;;;;;5051051;28;20398;-70
2023/07/12 06:40:23;;;;;;;9.13;5.88;;;17.50;99.90;;;;;;5058780;28;20028;-72
2023/07/12 06:42:49;;;;;;;13.50;6.25;;;17.50;99.90;;;;;;5054859;28;20032;-71
2023/07/12 06:45:15;;;;;;;12.15;5.82;;;17.50;99.90;;;;;;5051530;28;20028;-71
2023/07/12 06:47:40;;;;;;;11.43;5.95;;;17.60;99.90;;;;;;5051088;28;20036;-71
2023/07/12 06:50:06;;;;;;;11.60;6.22;;;17.60;99.90;;;;;;5062644;28;20104;-70
2023/07/12 06:52:32;;;;;;;12.65;6.05;;;17.60;99.90;;;;;;5051990;28;20369;-71
2023/07/12 06:55:00;;;;;;;12.45;6.57;;;17.70;99.90;;;;;;5030683;28;20021;-71
2023/07/12 06:57:25;;;;;;;10.40;5.53;;;17.70;99.90;;;;;;5028685;28;20049;-72
2023/07/12 06:59:51;;;;;;;10.25;6.20;;;17.80;99.90;;;;;;5037912;28;20020;-71
2023/07/12 07:02:16;;;;;;;11.43;5.97;;;17.80;99.90;;;;;;5027589;28;20041;-71
2023/07/12 07:04:42;;;;;;;11.90;5.97;;;17.80;99.90;;;;;;5051295;28;20079;-71
2023/07/12 07:07:07;;;;;;;11.38;5.60;;;17.80;99.90;;;;;;5035576;28;20930;-72
2023/07/12 07:09:36;;;;;;;9.60;5.80;;;17.90;99.90;;;;;;5026166;28;20032;-72
2023/07/12 07:12:02;;;;;;;11.63;5.40;;;18.00;99.90;;;;;;5040247;28;20358;-72
2023/07/12 07:14:28;;;;;;;13.80;5.93;;;18.20;99.90;;;;;;5035282;28;20024;-72
2023/07/12 07:16:53;;;;;;;11.68;4.80;;;18.40;99.90;;;;;;5027075;28;20025;-72
2023/07/12 07:19:21;;;;;;;11.88;4.13;;;18.50;99.90;;;;;;5029779;28;20100;-72
2023/07/12 07:21:48;;;;;;;9.38;4.05;;;18.60;99.90;;;;;;5006262;28;20029;-71
2023/07/12 07:24:14;;;;;;;14.65;4.70;;;18.70;99.90;;;;;;5027957;28;20021;-71
2023/07/12 07:26:39;;;;;;;8.90;3.65;;;18.80;99.90;;;;;;5025324;28;20115;-71
2023/07/12 07:29:05;;;;;;;7.97;3.97;;;18.90;99.90;;;;;;5029613;28;20045;-71
2023/07/12 07:31:31;;;;;;;8.48;3.78;;;19.00;99.90;;;;;;5027286;28;20055;-71
2023/07/12 07:33:56;;;;;;;9.88;3.75;;;18.90;99.90;;;;;;5035467;28;20037;-71
2023/07/12 07:36:22;;;;;;;10.55;3.80;;;18.90;99.90;;;;;;5023622;28;20030;-71
2023/07/12 07:38:48;;;;;;;16.67;4.25;;;18.80;99.90;;;;;;5039321;28;20104;-70
2023/07/12 07:41:15;;;;;;;10.00;4.53;;;18.80;99.90;;;;;;5042228;28;20029;-71
2023/07/12 07:43:41;;;;;;;12.05;4.07;;;18.70;99.90;;;;;;5051888;28;20031;-70
2023/07/12 07:46:07;;;;;;;11.68;4.68;;;18.70;99.90;;;;;;5036887;28;20372;-70
2023/07/12 07:48:33;;;;;;;8.88;4.82;;;18.70;99.90;;;;;;5030275;28;20045;-70
2023/07/12 07:50:59;;;;;;;11.95;4.50;;;18.80;99.90;;;;;;5038166;28;20020;-72
2023/07/12 07:53:25;;;;;;;10.40;4.65;;;18.80;99.90;;;;;;5035476;28;20102;-72
2023/07/12 07:55:50;;;;;;;12.63;5.03;;;19.00;99.90;;;;;;5042622;28;20029;-72
2023/07/12 07:58:16;;;;;;;13.55;5.00;;;19.10;99.90;;;;;;5028104;28;20436;-72
2023/07/12 08:00:42;;;;;;;12.45;5.43;;;19.10;99.90;;;;;;5038078;28;20395;-69
2023/07/12 08:03:08;;;;;;;14.48;5.53;;;19.10;99.90;;;;;;5029565;28;20442;-71
2023/07/12 08:05:35;;;;;;;11.93;5.53;;;19.20;99.90;;;;;;5040579;28;20063;-71
2023/07/12 08:08:00;;;;;;;12.63;5.00;;;19.30;99.90;;;;;;5034976;28;20107;-71
2023/07/12 08:10:27;;;;;;;9.65;4.20;;;19.40;99.90;;;;;;5035827;28;20026;-71
2023/07/12 08:12:55;;;;;;;13.60;4.13;;;19.40;99.90;;;;;;5022284;28;20048;-70
2023/07/12 08:15:21;;;;;;;9.85;4.30;;;19.60;99.90;;;;;;5038046;28;20036;-71
2023/07/12 08:17:47;;;;;;;13.07;4.22;;;19.70;99.90;;;;;;5038260;28;20025;-70
2023/07/12 08:20:13;;;;;;;11.10;4.35;;;19.80;99.90;;;;;;5027732;28;20029;-71
2023/07/12 08:22:38;;;;;;;12.70;5.00;;;19.80;99.90;;;;;;5030490;28;20030;-70
2023/07/12 08:25:04;;;;;;;12.13;5.32;;;19.80;99.90;;;;;;5018074;28;20091;-70
2023/07/12 08:27:30;;;;;;;6.47;4.28;;;19.90;99.90;;;;;;5027756;28;20034;-70
2023/07/12 08:29:58;;;;;;;10.55;3.92;;;20.00;99.90;;;;;;5021796;28;20101;-70
2023/07/12 08:32:27;;;;;;;11.00;4.20;;;20.00;99.90;;;;;;5024332;28;20053;-70
2023/07/12 08:34:53;;;;;;;11.13;4.75;;;20.00;99.90;;;;;;5015934;28;20053;-70
2023/07/12 08:37:18;;;;;;;11.60;3.65;;;20.20;99.90;;;;;;5028550;28;20037;-70
2023/07/12 08:39:44;;;;;;;10.45;3.65;;;20.40;99.90;;;;;;5029986;28;20025;-71
2023/07/12 08:42:13;;;;;;;10.88;4.13;;;20.50;99.90;;;;;;5030008;28;20030;-71
2023/07/12 08:44:38;;;;;;;7.90;3.75;;;20.50;99.90;;;;;;5028648;28;20515;-70
2023/07/12 08:47:07;;;;;;;9.93;3.47;;;20.30;99.90;;;;;;5020256;28;20040;-71
2023/07/12 08:49:32;;;;;;;8.82;3.28;;;20.30;99.90;;;;;;5032332;28;20036;-71
2023/07/12 08:52:02;;;;;;;10.57;3.78;;;20.30;99.90;;;;;;5026264;28;20109;-71
2023/07/12 08:54:35;;;;;;;11.57;3.08;;;20.40;99.90;;;;;;5014877;28;20025;-71
2023/07/12 08:57:31;;;;;;;5.82;2.40;;;20.40;99.90;;;;;;5049262;28;20049;-71
2023/07/12 09:00:14;;;;;;;7.88;2.28;;;20.60;99.90;;;;;;5032233;28;20493;-71
2023/07/12 09:02:39;;;;;;;11.00;2.72;;;20.80;99.90;;;;;;5047642;28;20124;-71
2023/07/12 09:05:12;;;;;;;10.45;2.40;;;21.00;99.90;;;;;;5049619;28;20542;-69
2023/07/12 09:07:41;;;;;;;7.30;2.65;;;20.90;99.90;;;;;;5046071;28;20247;-69
2023/07/12 09:10:08;;;;;;;8.15;2.00;;;20.90;99.90;;;;;;5053482;28;20494;-71
2023/07/12 09:12:36;;;;;;;7.47;2.42;;;21.00;99.90;;;;;;5053166;28;20404;-71
2023/07/12 09:15:07;;;;;;;6.95;1.92;;;21.10;99.90;;;;;;5053873;28;20098;-69
2023/07/12 09:17:42;;;;;;;9.65;2.00;;;21.20;99.90;;;;;;5049907;28;20041;-71
2023/07/12 09:20:26;;;;;;;9.60;2.30;;;21.30;99.90;;;;;;5050198;28;20364;-71
2023/07/12 09:22:53;;;;;;;8.80;2.35;;;21.40;99.90;;;;;;5052046;28;20033;-72
2023/07/12 09:25:22;;;;;;;9.35;2.20;;;21.40;99.90;;;;;;5072092;28;20039;-71
2023/07/12 09:27:48;;;;;;;8.80;2.22;;;21.60;99.90;;;;;;5052186;28;20041;-71
2023/07/12 09:30:21;;;;;;;8.40;1.40;;;21.70;99.90;;;;;;5054780;28;20632;-71
2023/07/12 09:32:49;;;;;;;9.80;1.92;;;21.50;99.90;;;;;;5052690;28;20477;-71
2023/07/12 09:35:38;;;;;;;12.23;2.65;;;21.50;99.90;;;;;;5047723;28;20017;-70
2023/07/12 09:38:08;;;;;;;7.75;1.95;;;21.50;99.90;;;;;;5051561;28;20495;-71
2023/07/12 09:40:46;;;;;;;7.10;2.08;;;21.50;99.90;;;;;;5046548;28;20045;-71
2023/07/12 09:43:25;;;;;;;7.43;1.88;;;21.60;99.90;;;;;;5030459;28;20029;-71
2023/07/12 09:46:11;;;;;;;6.75;1.70;;;21.80;99.90;;;;;;5041932;28;20040;-71
2023/07/12 09:48:50;;;;;;;6.85;1.90;;;21.90;99.90;;;;;;5051850;28;20086;-71
2023/07/12 09:51:33;;;;;;;10.75;1.52;;;21.90;99.90;;;;;;5048977;28;20028;-71
2023/07/12 09:54:02;;;;;;;8.02;2.05;;;21.80;99.90;;;;;;5059688;28;20328;-71
2023/07/12 09:57:23;;;;;;;4.20;1.75;;;21.90;99.90;;;;;;5024405;28;20514;-71
2023/07/12 10:00:23;;;;;;;6.97;1.77;;;22.20;99.90;;;;;;4989955;28;20455;-71
2023/07/12 10:03:13;;;;;;;9.43;2.08;;;22.40;99.90;;;;;;5045817;28;20359;-71
2023/07/12 10:05:47;;;;;;;6.72;1.45;;;22.40;99.90;;;;;;5053168;28;20025;-71
2023/07/12 10:08:15;;;;;;;7.13;1.55;;;22.20;99.90;;;;;;5053820;28;20084;-71
2023/07/12 10:10:53;;;;;;;4.35;0.70;;;22.10;99.90;;;;;;5038857;28;20071;-71
2023/07/12 10:13:41;;;;;;;5.60;1.00;;;22.00;99.90;;;;;;5053183;28;20613;-71
2023/07/12 10:16:21;;;;;;;9.63;1.67;;;22.00;99.90;;;;;;5053646;28;20036;-71
2023/07/12 10:18:49;;;;;;;4.78;1.35;;;22.10;99.90;;;;;;5049516;28;20041;-70
2023/07/12 10:21:26;;;;;;;9.88;1.55;;;22.10;99.90;;;;;;5050406;28;20072;-71
2023/07/12 10:23:59;;;;;;;5.38;1.48;;;22.20;99.90;;;;;;5052706;28;20025;-71
2023/07/12 10:26:25;;;;;;;8.00;2.00;;;22.40;99.90;;;;;;5060399;28;20069;-71
2023/07/12 10:29:05;;;;;;;4.80;1.80;;;22.50;99.90;;;;;;5060007;28;20110;-71
2023/07/12 10:31:40;;;;;;;7.07;1.30;;;22.30;99.90;;;;;;5051928;28;20036;-71
2023/07/12 10:34:23;;;;;;;4.97;0.95;;;22.30;99.90;;;;;;5045009;28;20128;-70
2023/07/12 10:36:54;;;;;;;5.70;1.30;;;22.60;99.90;;;;;;5053816;28;20489;-72
2023/07/12 10:39:21;;;;;;;8.52;1.85;;;22.80;99.90;;;;;;5069759;28;20033;-71
2023/07/12 10:41:55;;;;;;;7.78;1.90;;;22.70;99.90;;;;;;5048662;28;20028;-71
2023/07/12 10:44:26;;;;;;;8.40;1.58;;;22.50;99.90;;;;;;5051599;28;20032;-70
2023/07/12 10:46:58;;;;;;;7.53;1.37;;;22.40;99.90;;;;;;5049819;28;20045;-71
2023/07/12 10:49:52;;;;;;;4.78;1.00;;;22.30;99.90;;;;;;5049179;28;20076;-71
2023/07/12 10:52:53;;;;;;;5.10;0.95;;;22.20;99.90;;;;;;5054864;28;20108;-71
2023/07/12 10:55:40;;;;;;;6.68;1.10;;;22.30;99.90;;;;;;5052625;28;20068;-71
2023/07/12 10:58:26;;;;;;;7.25;1.00;;;22.20;99.90;;;;;;5055217;28;20036;-71
2023/07/12 11:00:56;;;;;;;7.53;0.95;;;22.20;99.90;;;;;;5041577;28;20024;-71
2023/07/12 11:03:39;;;;;;;6.13;1.00;;;22.10;99.90;;;;;;5051611;28;20300;-71
2023/07/12 11:06:22;;;;;;;7.43;0.90;;;22.00;99.90;;;;;;5032095;28;20144;-71
2023/07/12 11:09:14;;;;;;;9.32;1.98;;;22.00;99.90;;;;;;5043570;28;20032;-71
2023/07/12 11:11:43;;;;;;;6.03;1.33;;;22.00;99.90;;;;;;5045595;28;20025;-71
2023/07/12 11:14:19;;;;;;;6.05;0.80;;;22.10;99.90;;;;;;5050441;28;20037;-71
2023/07/12 11:17:07;;;;;;;4.55;1.10;;;22.30;99.90;;;;;;5062827;28;20029;-71
2023/07/12 11:19:44;;;;;;;5.25;0.63;;;22.40;99.90;;;;;;5072187;28;20073;-71
2023/07/12 11:22:23;;;;;;;6.65;1.35;;;22.60;99.90;;;;;;5068433;28;20066;-71
2023/07/12 11:25:22;;;;;;;4.10;1.27;;;22.70;99.90;;;;;;5051865;28;20028;-71
2023/07/12 11:27:57;;;;;;;9.32;2.40;;;22.80;99.90;;;;;;5047126;28;20088;-71
2023/07/12 11:30:31;;;;;;;6.50;1.85;;;22.60;99.90;;;;;;5058552;28;20025;-71
2023/07/12 11:33:26;;;;;;;6.47;1.52;;;22.30;99.90;;;;;;5062192;28;20017;-71
2023/07/12 11:36:06;;;;;;;5.50;1.35;;;22.10;99.90;;;;;;5051520;28;20112;-71
2023/07/12 11:38:34;;;;;;;3.47;1.25;;;22.00;99.90;;;;;;5041990;28;20029;-71
2023/07/12 11:41:06;;;;;;;5.57;0.90;;;22.00;99.90;;;;;;5071270;28;20500;-71
2023/07/12 11:43:35;;;;;;;5.18;0.90;;;22.00;99.90;;;;;;5052901;28;20047;-71
2023/07/12 11:46:03;;;;;;;8.25;1.73;;;22.10;99.90;;;;;;5040778;28;20026;-71
2023/07/12 11:48:32;;;;;;;6.70;0.88;;;22.30;99.90;;;;;;5050275;28;20064;-71
2023/07/12 11:51:01;;;;;;;5.25;1.20;;;22.60;99.90;;;;;;5050994;28;20483;-72
2023/07/12 11:53:28;;;;;;;6.18;1.00;;;22.80;99.90;;;;;;5052266;28;20493;-71
2023/07/12 11:55:54;;;;;;;6.45;1.50;;;22.90;99.90;;;;;;5059582;28;20044;-72
2023/07/12 11:58:22;;;;;;;6.72;1.10;;;22.90;99.90;;;;;;5051850;28;20033;-71
2023/07/12 12:00:49;;;;;;;7.65;0.95;;;22.80;99.90;;;;;;5057254;28;20024;-71
2023/07/12 12:03:25;;;;;;;4.65;0.60;;;22.80;99.90;;;;;;5109127;27;20320;-71
2023/07/12 12:05:52;;;;;;;4.55;0.90;;;22.80;99.50;;;;;;5098727;28;20028;-71
2023/07/12 12:08:21;;;;;;;5.47;0.80;;;22.90;98.90;;;;;;5101342;28;20032;-71
2023/07/12 12:10:48;;;;;;;5.97;0.73;;;22.90;98.30;;;;;;5088531;28;20173;-71
2023/07/12 12:13:24;;;;;;;5.20;1.05;;;22.90;97.40;;;;;;5088551;28;20049;-71
2023/07/12 12:15:57;;;;;;;3.63;0.80;;;22.70;97.40;;;;;;5090128;28;20028;-71
2023/07/12 12:18:22;;;;;;;4.13;0.93;;;22.60;98.10;;;;;;5092389;28;20372;-71
2023/07/12 12:21:14;;;;;;;4.78;0.90;;;22.60;98.20;;;;;;5097211;28;20032;-71
2023/07/12 12:23:42;;;;;;;6.60;1.15;;;22.80;98.30;;;;;;5088118;28;20487;-70
2023/07/12 12:26:19;;;;;;;6.03;1.20;;;23.00;98.40;;;;;;5103455;28;20056;-71
2023/07/12 12:28:53;;;;;;;4.53;1.38;;;23.30;98.00;;;;;;5107466;28;20028;-71
2023/07/12 12:31:23;;;;;;;6.28;1.50;;;23.40;96.80;;;;;;5107887;28;20032;-72
2023/07/12 12:34:12;;;;;;;6.40;1.70;;;23.40;96.70;;;;;;5107599;28;20396;-71
2023/07/12 12:36:38;;;;;;;7.47;1.30;;;23.60;96.60;;;;;;5105717;28;20031;-71
2023/07/12 12:39:19;;;;;;;7.60;1.80;;;23.70;96.40;;;;;;5108118;28;20109;-71
2023/07/12 12:41:59;;;;;;;7.30;0.90;;;23.80;96.20;;;;;;5108294;28;20031;-72
2023/07/12 12:44:35;;;;;;;5.60;1.05;;;23.80;95.50;;;;;;5107242;28;20088;-71
2023/07/12 12:47:12;;;;;;;7.35;1.13;;;23.70;95.20;;;;;;5107678;28;20120;-71
2023/07/12 12:49:38;;;;;;;5.18;0.70;;;23.60;94.90;;;;;;5104313;28;20046;-71
2023/07/12 12:52:18;;;;;;;3.92;0.60;;;23.70;95.00;;;;;;5106348;28;20543;-72
2023/07/12 12:54:44;;;;;;;10.07;1.40;;;23.80;94.20;;;;;;5100489;28;20368;-72